createdAt,value
2023-01-03T00:04:47.389Z,100389.98
2023-01-03T00:09:51.820Z,100385.23
2023-01-03T00:14:54.624Z,100395.42
2023-01-03T00:19:57.303Z,100406.62
2023-01-03T00:25:00.178Z,100409.63
2023-01-03T00:30:02.998Z,100408.15
2023-01-03T00:35:06.823Z,100398.81
2023-01-03T00:40:10.760Z,100403.40
2023-01-03T00:45:17.705Z,100410.08
2023-01-03T00:50:22.598Z,100426.73
2023-01-03T00:55:25.350Z,100434.86
2023-01-03T01:00:28.127Z,100449.51
2023-01-03T01:05:31.450Z,100458.09
2023-01-03T01:10:34.244Z,100461.53
2023-01-03T01:15:39.255Z,100476.52
2023-01-03T01:20:41.978Z,100479.13
2023-01-03T01:25:44.724Z,100478.33
2023-01-03T01:30:47.430Z,100482.02
2023-01-03T01:35:50.179Z,100494.89
2023-01-03T01:40:52.832Z,100497.79
2023-01-03T01:45:55.606Z,100493.30
2023-01-03T01:50:58.729Z,100501.94
2023-01-03T01:56:09.843Z,100507.14
2023-01-03T02:01:14.813Z,100514.69
2023-01-03T02:06:18.547Z,100513.61
2023-01-03T02:12:17.821Z,100511.41
2023-01-03T02:17:56.444Z,100517.03
2023-01-03T02:23:17.203Z,100523.64
2023-01-03T02:28:47.305Z,100531.18
2023-01-03T02:34:05.744Z,100532.69
2023-01-03T02:39:41.047Z,100536.65
2023-01-03T02:44:56.428Z,100537.23
2023-01-03T02:50:04.522Z,100538.58
2023-01-03T02:55:16.461Z,100543.13
2023-01-03T03:00:24.253Z,100537.95
2023-01-03T03:05:32.409Z,100539.33
2023-01-03T03:10:54.480Z,100540.42
2023-01-03T03:15:59.766Z,100547.58
2023-01-03T03:21:23.421Z,100547.68
2023-01-03T03:26:32.673Z,100546.61
2023-01-03T03:31:40.698Z,100541.95
2023-01-03T03:36:55.066Z,100551.55
2023-01-03T03:42:35.161Z,100554.77
2023-01-03T03:47:38.558Z,100555.89
2023-01-03T03:52:46.594Z,100566.90
2023-01-03T03:58:00.000Z,100569.10
2023-01-03T04:03:06.038Z,100580.89
2023-01-03T04:08:09.118Z,100593.29
2023-01-03T04:13:12.161Z,100609.12
2023-01-03T04:18:14.831Z,100611.73
2023-01-03T04:23:17.539Z,100620.13
2023-01-03T04:28:20.530Z,100631.88
2023-01-03T04:33:23.194Z,100632.81
2023-01-03T04:38:26.469Z,100637.32
2023-01-03T04:43:47.993Z,100645.97
2023-01-03T04:48:50.788Z,100648.40
2023-01-03T04:53:53.585Z,100647.66
2023-01-03T04:58:56.675Z,100656.98
2023-01-03T05:04:01.452Z,100665.05
2023-01-03T05:09:04.334Z,100669.75
2023-01-03T05:14:12.428Z,100666.40
2023-01-03T05:19:17.109Z,100668.86
2023-01-03T05:24:38.785Z,100670.34
2023-01-03T05:29:41.794Z,100675.36
2023-01-03T05:34:44.647Z,100678.98
2023-01-03T05:39:47.316Z,100684.73
2023-01-03T05:44:49.957Z,100696.28
2023-01-03T05:49:52.658Z,100704.27
2023-01-03T05:54:55.312Z,100703.16
2023-01-03T05:59:58.053Z,100717.52
2023-01-03T06:05:00.786Z,100730.34
2023-01-03T06:10:05.318Z,100733.11
2023-01-03T06:15:08.764Z,100737.59
2023-01-03T06:20:11.824Z,100741.11
2023-01-03T06:25:14.802Z,100748.14
2023-01-03T06:30:18.230Z,100757.83
2023-01-03T06:35:20.980Z,100769.10
2023-01-03T06:40:24.044Z,100772.05
2023-01-03T06:45:45.457Z,100774.41
2023-01-03T06:51:07.027Z,100787.16
2023-01-03T06:56:10.448Z,100800.88
2023-01-03T07:01:14.936Z,100817.02
2023-01-03T07:06:17.730Z,100816.12
2023-01-03T07:11:23.785Z,100824.77
2023-01-03T07:16:41.585Z,100830.55
2023-01-03T07:21:45.329Z,100833.89
2023-01-03T07:26:48.106Z,100837.86
2023-01-03T07:31:50.824Z,100849.16
2023-01-03T07:36:53.632Z,100854.70
2023-01-03T07:42:15.084Z,100855.08
2023-01-03T07:47:17.829Z,100858.34
2023-01-03T07:52:20.733Z,100859.40
2023-01-03T07:57:23.479Z,100860.22
2023-01-03T08:02:26.423Z,100862.61
2023-01-03T08:07:30.121Z,100868.40
2023-01-03T08:12:51.660Z,100862.95
2023-01-03T08:17:54.390Z,100861.77
2023-01-03T08:22:59.904Z,100864.98
2023-01-03T08:28:03.712Z,100865.17
2023-01-03T08:33:10.266Z,100871.13
2023-01-03T08:38:18.099Z,100883.66
2023-01-03T08:43:21.180Z,100892.38
2023-01-03T08:48:24.679Z,100892.38
2023-01-03T08:53:28.938Z,100901.23
2023-01-03T08:58:31.712Z,100891.70
2023-01-03T09:03:34.623Z,100896.71
2023-01-03T09:08:37.502Z,100898.42
2023-01-03T09:13:40.973Z,100908.08
2023-01-03T09:18:43.800Z,100913.16
2023-01-03T09:23:46.480Z,100910.94
2023-01-03T09:28:49.269Z,100913.20
2023-01-03T09:33:52.128Z,100920.92
2023-01-03T09:38:55.520Z,100929.42
2023-01-03T09:44:07.332Z,100938.09
2023-01-03T09:49:13.883Z,100938.16
2023-01-03T09:54:37.246Z,100938.64
2023-01-03T09:59:59.348Z,100950.48
2023-01-03T10:05:29.119Z,100953.73
2023-01-03T10:10:41.518Z,100961.31
2023-01-03T10:16:01.738Z,100969.80
2023-01-03T10:21:09.266Z,100968.13
2023-01-03T10:26:13.290Z,100971.17
2023-01-03T10:31:47.381Z,100972.95
2023-01-03T10:36:50.646Z,100986.77
2023-01-03T10:42:08.388Z,100977.80
2023-01-03T10:47:28.914Z,100980.38
2023-01-03T10:52:38.451Z,100974.02
2023-01-03T10:57:55.099Z,100987.27
2023-01-03T11:03:17.585Z,100984.89
2023-01-03T11:08:37.282Z,100981.57
2023-01-03T11:13:41.808Z,100983.20
2023-01-03T11:19:00.508Z,100980.45
2023-01-03T11:24:31.572Z,100977.13
2023-01-03T11:29:55.665Z,100975.07
2023-01-03T11:35:25.542Z,100978.94
2023-01-03T11:41:07.696Z,100983.45
2023-01-03T11:46:33.804Z,100983.52
2023-01-03T11:51:49.662Z,100982.59
2023-01-03T11:56:53.434Z,100984.05
2023-01-03T12:02:17.460Z,100989.94
2023-01-03T12:13:07.568Z,100993.58
2023-01-03T12:18:13.117Z,101009.89
2023-01-03T12:23:30.448Z,101003.38
2023-01-03T12:28:48.057Z,101002.91
2023-01-03T12:34:08.840Z,101006.05
2023-01-03T12:39:33.354Z,101008.42
2023-01-03T12:44:43.536Z,101006.20
2023-01-03T12:50:03.481Z,101005.00
2023-01-03T12:55:31.531Z,101001.09
2023-01-03T13:00:52.749Z,101010.30
2023-01-03T13:06:03.305Z,101011.69
2023-01-03T13:11:14.625Z,101017.96
2023-01-03T13:16:50.924Z,101021.98
2023-01-03T13:21:53.636Z,101033.10
2023-01-03T13:27:21.476Z,101038.00
2023-01-03T13:32:24.206Z,101046.35
2023-01-03T13:37:36.591Z,101056.02
2023-01-03T13:42:40.922Z,101060.98
2023-01-03T13:47:47.358Z,101063.20
2023-01-03T13:53:25.457Z,101069.59
2023-01-03T13:58:30.706Z,101075.69
2023-01-03T14:03:58.502Z,101069.91
2023-01-03T14:09:16.635Z,101075.64
2023-01-03T14:14:24.176Z,101078.59
2023-01-03T14:19:34.412Z,101081.80
2023-01-03T14:24:37.240Z,101085.67
2023-01-03T14:29:42.826Z,101093.27
2023-01-03T14:34:45.700Z,101089.84
2023-01-03T14:40:00.186Z,101088.64
2023-01-03T14:45:06.603Z,101088.27
2023-01-03T14:50:19.497Z,101095.90
2023-01-03T14:55:27.408Z,101099.55
2023-01-03T15:00:34.573Z,101101.60
2023-01-03T15:05:40.709Z,101099.02
2023-01-03T15:11:04.183Z,101102.98
2023-01-03T15:16:22.507Z,101104.51
2023-01-03T15:21:25.382Z,101110.65
2023-01-03T15:26:40.582Z,101115.54
2023-01-03T15:31:54.491Z,101121.65
2023-01-03T15:37:10.285Z,101126.71
2023-01-03T15:42:44.558Z,101129.39
2023-01-03T15:47:50.177Z,101127.74
2023-01-03T15:52:52.930Z,101136.27
2023-01-03T15:57:56.548Z,101138.48
2023-01-03T16:02:59.847Z,101140.05
2023-01-03T16:08:06.244Z,101148.91
2023-01-03T16:13:10.052Z,101150.80
2023-01-03T16:18:17.978Z,101153.36
2023-01-03T16:23:30.113Z,101164.55
2023-01-03T16:28:33.391Z,101170.48
2023-01-03T16:33:38.152Z,101170.70
2023-01-03T16:38:40.856Z,101171.43
2023-01-03T16:43:43.563Z,101173.60
2023-01-03T16:48:52.405Z,101168.32
2023-01-03T16:53:56.847Z,101174.40
2023-01-03T16:58:59.548Z,101176.20
2023-01-03T17:04:02.279Z,101184.21
2023-01-03T17:09:28.181Z,101177.73
2023-01-03T17:14:36.365Z,101178.97
2023-01-03T17:25:02.135Z,101183.30
2023-01-03T17:30:07.184Z,101182.64
2023-01-03T17:35:13.970Z,101178.69
2023-01-03T17:40:32.992Z,101184.97
2023-01-03T17:45:54.881Z,101197.83
2023-01-03T17:50:58.738Z,101205.62
2023-01-03T17:56:01.851Z,101209.84
2023-01-03T18:01:08.089Z,101207.66
2023-01-03T18:06:16.772Z,101212.14
2023-01-03T18:11:22.130Z,101212.52
2023-01-03T18:16:24.934Z,101219.23
2023-01-03T18:21:28.319Z,101222.90
2023-01-03T18:26:38.062Z,101234.88
2023-01-03T18:31:42.247Z,101231.86
2023-01-03T18:36:47.845Z,101232.90
2023-01-03T18:41:50.587Z,101238.64
2023-01-03T18:46:53.486Z,101244.66
2023-01-03T18:51:58.417Z,101241.70
2023-01-03T18:57:01.203Z,101244.12
2023-01-03T19:02:14.163Z,101242.91
2023-01-03T19:07:29.031Z,101246.85
2023-01-03T19:12:39.210Z,101254.46
2023-01-03T19:17:42.124Z,101252.09
2023-01-03T19:22:47.514Z,101263.13
2023-01-03T19:27:53.417Z,101260.94
2023-01-03T19:32:58.011Z,101268.75
2023-01-03T19:38:00.791Z,101268.96
2023-01-03T19:43:04.280Z,101275.07
2023-01-03T19:48:19.939Z,101274.93
2023-01-03T19:53:22.621Z,101288.73
2023-01-03T19:58:29.633Z,101295.34
2023-01-03T20:03:42.987Z,101295.89
2023-01-03T20:08:47.207Z,101296.24
2023-01-03T20:13:49.966Z,101296.80
2023-01-03T20:18:52.808Z,101312.62
2023-01-03T20:24:01.674Z,101315.36
2023-01-03T20:29:05.500Z,101312.08
2023-01-03T20:34:10.025Z,101308.23
2023-01-03T20:39:36.445Z,101315.45
2023-01-03T20:44:39.276Z,101316.08
2023-01-03T20:49:43.149Z,101316.71
2023-01-03T20:54:45.904Z,101321.77
2023-01-03T20:59:48.704Z,101317.02
2023-01-03T21:04:51.395Z,101321.80
2023-01-03T21:09:54.052Z,101320.04
2023-01-03T21:14:56.729Z,101313.39
2023-01-03T21:19:59.412Z,101313.88
2023-01-03T21:25:02.121Z,101315.20
2023-01-03T21:30:05.616Z,101320.08
2023-01-03T21:35:13.130Z,101327.68
2023-01-03T21:40:29.853Z,101327.67
2023-01-03T21:45:41.470Z,101330.96
2023-01-03T21:50:46.931Z,101342.05
2023-01-03T21:55:50.400Z,101346.22
2023-01-03T22:00:53.146Z,101348.92
2023-01-03T22:06:06.248Z,101345.16
2023-01-03T22:11:09.086Z,101352.23
2023-01-03T22:16:11.866Z,101357.38
2023-01-03T22:21:14.691Z,101361.48
2023-01-03T22:26:18.012Z,101358.17
2023-01-03T22:31:24.623Z,101355.36
2023-01-03T22:36:27.398Z,101352.57
2023-01-03T22:41:30.093Z,101361.52
2023-01-03T22:46:33.036Z,101367.31
2023-01-03T22:51:35.742Z,101372.67
2023-01-03T22:56:38.562Z,101373.92
2023-01-03T23:01:41.347Z,101369.10
2023-01-03T23:06:44.102Z,101368.41
2023-01-03T23:12:05.482Z,101368.28
2023-01-03T23:17:26.967Z,101362.73
2023-01-03T23:22:29.633Z,101371.64
2023-01-03T23:27:32.289Z,101367.48
2023-01-03T23:32:34.968Z,101376.90
2023-01-03T23:37:38.349Z,101379.04
2023-01-03T23:42:41.186Z,101379.13
2023-01-03T23:47:43.885Z,101372.81
2023-01-03T23:52:46.685Z,101362.75
2023-01-03T23:57:49.381Z,101367.86
